sensor_id;sensor_type;location;lat;lon;timestamp;P1;durP1;ratioP1;P2;durP2;ratioP2
55417;SDS011;41287;47.554;7.844;2022-07-22T00:02:15;3.65;;;2.42;;
55417;SDS011;41287;47.554;7.844;2022-07-22T00:04:44;2.80;;;2.08;;
55417;SDS011;41287;47.554;7.844;2022-07-22T00:07:09;4.53;;;2.65;;
55417;SDS011;41287;47.554;7.844;2022-07-22T00:09:35;4.57;;;2.90;;
55417;SDS011;41287;47.554;7.844;2022-07-22T00:12:01;3.17;;;2.53;;
55417;SDS011;41287;47.554;7.844;2022-07-22T00:14:26;4.63;;;2.80;;
55417;SDS011;41287;47.554;7.844;2022-07-22T00:16:51;3.58;;;2.35;;
55417;SDS011;41287;47.554;7.844;2022-07-22T00:19:20;3.92;;;3.08;;
55417;SDS011;41287;47.554;7.844;2022-07-22T00:21:49;3.38;;;2.47;;
55417;SDS011;41287;47.554;7.844;2022-07-22T00:24:15;4.25;;;3.03;;
55417;SDS011;41287;47.554;7.844;2022-07-22T00:26:41;3.78;;;2.72;;
55417;SDS011;41287;47.554;7.844;2022-07-22T00:29:06;4.95;;;2.90;;
55417;SDS011;41287;47.554;7.844;2022-07-22T00:31:32;4.47;;;2.65;;
55417;SDS011;41287;47.554;7.844;2022-07-22T00:33:58;6.78;;;3.28;;
55417;SDS011;41287;47.554;7.844;2022-07-22T00:36:26;5.53;;;3.30;;
55417;SDS011;41287;47.554;7.844;2022-07-22T00:38:52;6.22;;;2.90;;
55417;SDS011;41287;47.554;7.844;2022-07-22T00:41:17;3.97;;;2.90;;
55417;SDS011;41287;47.554;7.844;2022-07-22T00:43:54;3.97;;;3.10;;
55417;SDS011;41287;47.554;7.844;2022-07-22T00:46:23;3.67;;;2.80;;
55417;SDS011;41287;47.554;7.844;2022-07-22T00:48:49;4.65;;;2.97;;
55417;SDS011;41287;47.554;7.844;2022-07-22T00:51:16;3.65;;;2.80;;
55417;SDS011;41287;47.554;7.844;2022-07-22T00:53:42;4.97;;;3.13;;
55417;SDS011;41287;47.554;7.844;2022-07-22T00:56:11;5.20;;;3.03;;
55417;SDS011;41287;47.554;7.844;2022-07-22T00:58:36;4.25;;;3.10;;
55417;SDS011;41287;47.554;7.844;2022-07-22T01:01:02;4.32;;;2.70;;
55417;SDS011;41287;47.554;7.844;2022-07-22T01:03:29;5.88;;;3.10;;
55417;SDS011;41287;47.554;7.844;2022-07-22T01:05:55;4.78;;;3.00;;
55417;SDS011;41287;47.554;7.844;2022-07-22T01:08:21;5.00;;;3.03;;
55417;SDS011;41287;47.554;7.844;2022-07-22T01:10:46;4.68;;;3.00;;
55417;SDS011;41287;47.554;7.844;2022-07-22T01:13:12;4.10;;;2.90;;
55417;SDS011;41287;47.554;7.844;2022-07-22T01:15:37;5.03;;;3.50;;
55417;SDS011;41287;47.554;7.844;2022-07-22T01:18:02;5.43;;;2.60;;
55417;SDS011;41287;47.554;7.844;2022-07-22T01:20:29;4.35;;;2.95;;
55417;SDS011;41287;47.554;7.844;2022-07-22T01:22:54;4.60;;;3.63;;
55417;SDS011;41287;47.554;7.844;2022-07-22T01:25:20;4.25;;;3.38;;
55417;SDS011;41287;47.554;7.844;2022-07-22T01:27:45;4.38;;;3.10;;
55417;SDS011;41287;47.554;7.844;2022-07-22T01:30:13;4.85;;;3.05;;
55417;SDS011;41287;47.554;7.844;2022-07-22T01:32:38;4.38;;;2.95;;
55417;SDS011;41287;47.554;7.844;2022-07-22T01:35:03;4.30;;;2.95;;
55417;SDS011;41287;47.554;7.844;2022-07-22T01:37:31;4.40;;;3.13;;
55417;SDS011;41287;47.554;7.844;2022-07-22T01:39:58;5.53;;;2.95;;
55417;SDS011;41287;47.554;7.844;2022-07-22T01:42:23;4.35;;;3.25;;
55417;SDS011;41287;47.554;7.844;2022-07-22T01:44:49;4.38;;;3.10;;
55417;SDS011;41287;47.554;7.844;2022-07-22T01:47:14;5.38;;;3.40;;
55417;SDS011;41287;47.554;7.844;2022-07-22T01:49:40;4.70;;;3.33;;
55417;SDS011;41287;47.554;7.844;2022-07-22T01:52:09;4.85;;;3.10;;
55417;SDS011;41287;47.554;7.844;2022-07-22T01:54:34;5.43;;;3.40;;
55417;SDS011;41287;47.554;7.844;2022-07-22T01:57:00;5.13;;;3.60;;
55417;SDS011;41287;47.554;7.844;2022-07-22T01:59:29;7.22;;;3.55;;
55417;SDS011;41287;47.554;7.844;2022-07-22T02:01:55;5.38;;;3.38;;
55417;SDS011;41287;47.554;7.844;2022-07-22T02:04:20;6.68;;;3.70;;
55417;SDS011;41287;47.554;7.844;2022-07-22T02:06:50;4.40;;;3.28;;
55417;SDS011;41287;47.554;7.844;2022-07-22T02:09:15;5.50;;;3.83;;
55417;SDS011;41287;47.554;7.844;2022-07-22T02:11:41;4.72;;;3.10;;
55417;SDS011;41287;47.554;7.844;2022-07-22T02:14:09;6.07;;;3.60;;
55417;SDS011;41287;47.554;7.844;2022-07-22T02:16:34;6.35;;;3.90;;
55417;SDS011;41287;47.554;7.844;2022-07-22T02:19:01;6.10;;;3.95;;
55417;SDS011;41287;47.554;7.844;2022-07-22T02:21:27;4.72;;;3.63;;
55417;SDS011;41287;47.554;7.844;2022-07-22T02:23:52;5.13;;;3.40;;
55417;SDS011;41287;47.554;7.844;2022-07-22T02:26:18;6.03;;;3.65;;
55417;SDS011;41287;47.554;7.844;2022-07-22T02:28:43;5.55;;;3.70;;
55417;SDS011;41287;47.554;7.844;2022-07-22T02:31:09;5.18;;;3.72;;
55417;SDS011;41287;47.554;7.844;2022-07-22T02:33:36;4.80;;;3.60;;
55417;SDS011;41287;47.554;7.844;2022-07-22T02:36:02;4.30;;;3.25;;
55417;SDS011;41287;47.554;7.844;2022-07-22T02:38:28;5.25;;;3.30;;
55417;SDS011;41287;47.554;7.844;2022-07-22T02:40:53;6.07;;;3.75;;
55417;SDS011;41287;47.554;7.844;2022-07-22T02:43:21;4.32;;;3.17;;
55417;SDS011;41287;47.554;7.844;2022-07-22T02:45:46;6.72;;;4.00;;
55417;SDS011;41287;47.554;7.844;2022-07-22T02:48:11;6.28;;;3.70;;
55417;SDS011;41287;47.554;7.844;2022-07-22T02:50:37;4.82;;;3.30;;
55417;SDS011;41287;47.554;7.844;2022-07-22T02:53:04;6.68;;;3.95;;
55417;SDS011;41287;47.554;7.844;2022-07-22T02:55:29;6.85;;;3.92;;
55417;SDS011;41287;47.554;7.844;2022-07-22T02:57:54;5.97;;;3.85;;
55417;SDS011;41287;47.554;7.844;2022-07-22T03:00:23;8.27;;;4.22;;
55417;SDS011;41287;47.554;7.844;2022-07-22T03:02:49;5.97;;;3.80;;
55417;SDS011;41287;47.554;7.844;2022-07-22T03:05:14;6.82;;;3.92;;
55417;SDS011;41287;47.554;7.844;2022-07-22T03:07:42;7.53;;;3.35;;
55417;SDS011;41287;47.554;7.844;2022-07-22T03:10:07;5.63;;;3.92;;
55417;SDS011;41287;47.554;7.844;2022-07-22T03:12:33;6.65;;;3.70;;
55417;SDS011;41287;47.554;7.844;2022-07-22T03:14:58;5.25;;;3.75;;
55417;SDS011;41287;47.554;7.844;2022-07-22T03:17:24;5.50;;;3.58;;
55417;SDS011;41287;47.554;7.844;2022-07-22T03:19:49;7.68;;;3.53;;
55417;SDS011;41287;47.554;7.844;2022-07-22T03:22:15;6.97;;;3.70;;
55417;SDS011;41287;47.554;7.844;2022-07-22T03:24:44;6.47;;;3.95;;
55417;SDS011;41287;47.554;7.844;2022-07-22T03:27:11;5.32;;;3.85;;
55417;SDS011;41287;47.554;7.844;2022-07-22T03:29:37;5.25;;;3.40;;
55417;SDS011;41287;47.554;7.844;2022-07-22T03:32:02;5.20;;;3.95;;
55417;SDS011;41287;47.554;7.844;2022-07-22T03:34:28;6.80;;;4.43;;
55417;SDS011;41287;47.554;7.844;2022-07-22T03:36:53;7.13;;;4.25;;
55417;SDS011;41287;47.554;7.844;2022-07-22T03:39:19;6.65;;;4.07;;
55417;SDS011;41287;47.554;7.844;2022-07-22T03:41:46;6.68;;;3.80;;
55417;SDS011;41287;47.554;7.844;2022-07-22T03:44:13;6.35;;;3.75;;
55417;SDS011;41287;47.554;7.844;2022-07-22T03:46:39;5.00;;;3.60;;
55417;SDS011;41287;47.554;7.844;2022-07-22T03:49:04;6.53;;;3.72;;
55417;SDS011;41287;47.554;7.844;2022-07-22T03:51:30;6.95;;;3.75;;
55417;SDS011;41287;47.554;7.844;2022-07-22T03:53:55;7.60;;;4.07;;
55417;SDS011;41287;47.554;7.844;2022-07-22T03:56:20;6.22;;;3.22;;
55417;SDS011;41287;47.554;7.844;2022-07-22T03:58:48;4.85;;;3.40;;
55417;SDS011;41287;47.554;7.844;2022-07-22T04:01:15;5.65;;;3.90;;
55417;SDS011;41287;47.554;7.844;2022-07-22T04:03:41;5.20;;;3.50;;
55417;SDS011;41287;47.554;7.844;2022-07-22T04:06:06;6.05;;;3.22;;
55417;SDS011;41287;47.554;7.844;2022-07-22T04:08:32;9.30;;;3.95;;
55417;SDS011;41287;47.554;7.844;2022-07-22T04:10:57;6.15;;;3.42;;
55417;SDS011;41287;47.554;7.844;2022-07-22T04:13:23;6.15;;;3.38;;
55417;SDS011;41287;47.554;7.844;2022-07-22T04:15:48;7.60;;;3.95;;
55417;SDS011;41287;47.554;7.844;2022-07-22T04:18:15;7.65;;;3.80;;
55417;SDS011;41287;47.554;7.844;2022-07-22T04:20:42;5.53;;;3.65;;
55417;SDS011;41287;47.554;7.844;2022-07-22T04:23:08;5.47;;;3.50;;
55417;SDS011;41287;47.554;7.844;2022-07-22T04:25:35;7.55;;;3.83;;
55417;SDS011;41287;47.554;7.844;2022-07-22T04:28:00;6.72;;;3.75;;
55417;SDS011;41287;47.554;7.844;2022-07-22T04:30:26;8.93;;;4.18;;
55417;SDS011;41287;47.554;7.844;2022-07-22T04:32:55;6.30;;;3.67;;
55417;SDS011;41287;47.554;7.844;2022-07-22T04:35:23;5.78;;;3.42;;
55417;SDS011;41287;47.554;7.844;2022-07-22T04:37:49;6.53;;;3.63;;
55417;SDS011;41287;47.554;7.844;2022-07-22T04:40:14;7.10;;;3.55;;
55417;SDS011;41287;47.554;7.844;2022-07-22T04:42:40;5.68;;;3.83;;
55417;SDS011;41287;47.554;7.844;2022-07-22T04:45:05;10.75;;;3.80;;
55417;SDS011;41287;47.554;7.844;2022-07-22T04:47:31;7.32;;;3.90;;
55417;SDS011;41287;47.554;7.844;2022-07-22T04:49:56;6.65;;;4.00;;
55417;SDS011;41287;47.554;7.844;2022-07-22T04:52:24;6.57;;;3.92;;
55417;SDS011;41287;47.554;7.844;2022-07-22T04:54:49;5.28;;;3.40;;
55417;SDS011;41287;47.554;7.844;2022-07-22T04:57:14;7.55;;;3.63;;
55417;SDS011;41287;47.554;7.844;2022-07-22T04:59:42;9.57;;;4.07;;
55417;SDS011;41287;47.554;7.844;2022-07-22T05:02:07;7.05;;;4.20;;
55417;SDS011;41287;47.554;7.844;2022-07-22T05:04:32;7.85;;;3.78;;
55417;SDS011;41287;47.554;7.844;2022-07-22T05:07:01;6.05;;;3.90;;
55417;SDS011;41287;47.554;7.844;2022-07-22T05:09:28;5.90;;;3.95;;
55417;SDS011;41287;47.554;7.844;2022-07-22T05:11:53;5.72;;;3.92;;
55417;SDS011;41287;47.554;7.844;2022-07-22T05:14:18;6.85;;;3.70;;
55417;SDS011;41287;47.554;7.844;2022-07-22T05:16:46;6.45;;;3.78;;
55417;SDS011;41287;47.554;7.844;2022-07-22T05:19:11;5.40;;;3.58;;
55417;SDS011;41287;47.554;7.844;2022-07-22T05:21:36;6.25;;;3.55;;
55417;SDS011;41287;47.554;7.844;2022-07-22T05:24:02;5.93;;;3.30;;
55417;SDS011;41287;47.554;7.844;2022-07-22T05:26:28;6.47;;;3.75;;
55417;SDS011;41287;47.554;7.844;2022-07-22T05:28:55;9.88;;;4.60;;
55417;SDS011;41287;47.554;7.844;2022-07-22T05:31:22;7.78;;;4.00;;
55417;SDS011;41287;47.554;7.844;2022-07-22T05:33:47;8.18;;;4.47;;
55417;SDS011;41287;47.554;7.844;2022-07-22T05:36:13;9.70;;;4.10;;
55417;SDS011;41287;47.554;7.844;2022-07-22T05:38:42;9.18;;;3.85;;
55417;SDS011;41287;47.554;7.844;2022-07-22T05:41:07;9.30;;;4.35;;
55417;SDS011;41287;47.554;7.844;2022-07-22T05:43:33;11.95;;;4.75;;
55417;SDS011;41287;47.554;7.844;2022-07-22T05:45:58;7.80;;;4.07;;
55417;SDS011;41287;47.554;7.844;2022-07-22T05:48:24;6.97;;;4.30;;
55417;SDS011;41287;47.554;7.844;2022-07-22T05:50:51;7.07;;;4.25;;
55417;SDS011;41287;47.554;7.844;2022-07-22T05:53:17;9.93;;;4.43;;
55417;SDS011;41287;47.554;7.844;2022-07-22T05:55:42;5.82;;;4.03;;
55417;SDS011;41287;47.554;7.844;2022-07-22T05:58:08;5.72;;;4.05;;
55417;SDS011;41287;47.554;7.844;2022-07-22T06:00:34;7.53;;;4.55;;
55417;SDS011;41287;47.554;7.844;2022-07-22T06:02:59;7.32;;;4.22;;
55417;SDS011;41287;47.554;7.844;2022-07-22T06:05:25;6.75;;;4.25;;
55417;SDS011;41287;47.554;7.844;2022-07-22T06:07:50;7.82;;;4.68;;
55417;SDS011;41287;47.554;7.844;2022-07-22T06:10:15;8.07;;;4.30;;
55417;SDS011;41287;47.554;7.844;2022-07-22T06:12:41;8.40;;;4.63;;
55417;SDS011;41287;47.554;7.844;2022-07-22T06:15:06;7.90;;;4.45;;
55417;SDS011;41287;47.554;7.844;2022-07-22T06:17:32;8.45;;;4.57;;
55417;SDS011;41287;47.554;7.844;2022-07-22T06:19:58;10.20;;;5.25;;
55417;SDS011;41287;47.554;7.844;2022-07-22T06:22:23;7.95;;;4.97;;
55417;SDS011;41287;47.554;7.844;2022-07-22T06:24:49;8.68;;;4.53;;
55417;SDS011;41287;47.554;7.844;2022-07-22T06:27:17;7.78;;;4.30;;
55417;SDS011;41287;47.554;7.844;2022-07-22T06:29:42;5.55;;;3.97;;
55417;SDS011;41287;47.554;7.844;2022-07-22T06:32:07;7.78;;;4.20;;
55417;SDS011;41287;47.554;7.844;2022-07-22T06:34:33;7.00;;;4.13;;
55417;SDS011;41287;47.554;7.844;2022-07-22T06:36:59;8.77;;;4.55;;
55417;SDS011;41287;47.554;7.844;2022-07-22T06:39:24;8.18;;;4.15;;
55417;SDS011;41287;47.554;7.844;2022-07-22T06:41:50;7.43;;;3.47;;
55417;SDS011;41287;47.554;7.844;2022-07-22T06:44:15;5.22;;;3.75;;
55417;SDS011;41287;47.554;7.844;2022-07-22T06:46:41;6.18;;;3.60;;
55417;SDS011;41287;47.554;7.844;2022-07-22T06:49:06;8.07;;;3.58;;
55417;SDS011;41287;47.554;7.844;2022-07-22T06:51:32;6.15;;;3.10;;
55417;SDS011;41287;47.554;7.844;2022-07-22T06:53:58;5.50;;;3.20;;
55417;SDS011;41287;47.554;7.844;2022-07-22T06:56:24;5.63;;;3.50;;
55417;SDS011;41287;47.554;7.844;2022-07-22T06:58:49;6.65;;;3.63;;
55417;SDS011;41287;47.554;7.844;2022-07-22T07:01:18;5.53;;;3.60;;
55417;SDS011;41287;47.554;7.844;2022-07-22T07:03:44;7.68;;;4.45;;
55417;SDS011;41287;47.554;7.844;2022-07-22T07:06:09;6.07;;;3.63;;
55417;SDS011;41287;47.554;7.844;2022-07-22T07:08:36;7.57;;;3.67;;
55417;SDS011;41287;47.554;7.844;2022-07-22T07:11:02;5.32;;;3.42;;
55417;SDS011;41287;47.554;7.844;2022-07-22T07:13:33;5.90;;;3.70;;
55417;SDS011;41287;47.554;7.844;2022-07-22T07:15:58;5.63;;;3.08;;
55417;SDS011;41287;47.554;7.844;2022-07-22T07:18:24;7.85;;;3.92;;
55417;SDS011;41287;47.554;7.844;2022-07-22T07:20:49;6.43;;;4.00;;
55417;SDS011;41287;47.554;7.844;2022-07-22T07:23:15;7.47;;;4.32;;
55417;SDS011;41287;47.554;7.844;2022-07-22T07:25:40;6.22;;;4.00;;
55417;SDS011;41287;47.554;7.844;2022-07-22T07:28:06;8.85;;;4.53;;
55417;SDS011;41287;47.554;7.844;2022-07-22T07:30:31;6.90;;;4.13;;
55417;SDS011;41287;47.554;7.844;2022-07-22T07:32:57;6.78;;;4.40;;
55417;SDS011;41287;47.554;7.844;2022-07-22T07:35:22;6.82;;;3.30;;
55417;SDS011;41287;47.554;7.844;2022-07-22T07:37:48;6.22;;;3.60;;
55417;SDS011;41287;47.554;7.844;2022-07-22T07:40:13;7.28;;;4.05;;
55417;SDS011;41287;47.554;7.844;2022-07-22T07:42:39;6.40;;;3.83;;
55417;SDS011;41287;47.554;7.844;2022-07-22T07:45:05;8.15;;;4.32;;
55417;SDS011;41287;47.554;7.844;2022-07-22T07:47:31;6.53;;;3.78;;
55417;SDS011;41287;47.554;7.844;2022-07-22T07:49:56;7.15;;;3.92;;
55417;SDS011;41287;47.554;7.844;2022-07-22T07:52:24;6.43;;;4.43;;
55417;SDS011;41287;47.554;7.844;2022-07-22T07:54:49;7.65;;;4.20;;
55417;SDS011;41287;47.554;7.844;2022-07-22T07:57:15;5.90;;;3.78;;
55417;SDS011;41287;47.554;7.844;2022-07-22T07:59:40;7.30;;;4.20;;
55417;SDS011;41287;47.554;7.844;2022-07-22T08:02:06;7.15;;;4.15;;
55417;SDS011;41287;47.554;7.844;2022-07-22T08:04:35;7.38;;;4.47;;
55417;SDS011;41287;47.554;7.844;2022-07-22T08:07:02;7.25;;;4.22;;
55417;SDS011;41287;47.554;7.844;2022-07-22T08:09:29;7.88;;;4.05;;
55417;SDS011;41287;47.554;7.844;2022-07-22T08:11:54;9.38;;;4.20;;
55417;SDS011;41287;47.554;7.844;2022-07-22T08:14:20;7.50;;;4.30;;
55417;SDS011;41287;47.554;7.844;2022-07-22T08:16:45;6.30;;;3.45;;
55417;SDS011;41287;47.554;7.844;2022-07-22T08:19:11;5.55;;;3.50;;
55417;SDS011;41287;47.554;7.844;2022-07-22T08:21:38;7.40;;;3.92;;
55417;SDS011;41287;47.554;7.844;2022-07-22T08:24:04;5.68;;;3.90;;
55417;SDS011;41287;47.554;7.844;2022-07-22T08:26:30;5.95;;;3.60;;
55417;SDS011;41287;47.554;7.844;2022-07-22T08:28:55;6.10;;;4.10;;
55417;SDS011;41287;47.554;7.844;2022-07-22T08:31:20;5.68;;;3.45;;
55417;SDS011;41287;47.554;7.844;2022-07-22T08:33:46;5.18;;;3.70;;
55417;SDS011;41287;47.554;7.844;2022-07-22T08:36:11;5.15;;;3.70;;
55417;SDS011;41287;47.554;7.844;2022-07-22T08:38:37;7.20;;;4.13;;
55417;SDS011;41287;47.554;7.844;2022-07-22T08:41:03;5.80;;;3.70;;
55417;SDS011;41287;47.554;7.844;2022-07-22T08:43:29;7.40;;;3.55;;
55417;SDS011;41287;47.554;7.844;2022-07-22T08:45:59;6.85;;;3.88;;
55417;SDS011;41287;47.554;7.844;2022-07-22T08:48:24;9.02;;;4.80;;
55417;SDS011;41287;47.554;7.844;2022-07-22T08:50:50;6.78;;;4.07;;
55417;SDS011;41287;47.554;7.844;2022-07-22T08:53:15;6.15;;;3.80;;
55417;SDS011;41287;47.554;7.844;2022-07-22T08:55:45;5.75;;;3.80;;
55417;SDS011;41287;47.554;7.844;2022-07-22T08:58:11;6.60;;;3.92;;
55417;SDS011;41287;47.554;7.844;2022-07-22T09:00:37;5.38;;;3.42;;
55417;SDS011;41287;47.554;7.844;2022-07-22T09:03:24;6.28;;;4.10;;
55417;SDS011;41287;47.554;7.844;2022-07-22T09:05:52;4.85;;;3.70;;
55417;SDS011;41287;47.554;7.844;2022-07-22T09:08:20;5.03;;;3.25;;
55417;SDS011;41287;47.554;7.844;2022-07-22T09:10:46;5.70;;;3.47;;
55417;SDS011;41287;47.554;7.844;2022-07-22T09:13:13;6.35;;;3.20;;
55417;SDS011;41287;47.554;7.844;2022-07-22T09:15:45;6.05;;;3.53;;
55417;SDS011;41287;47.554;7.844;2022-07-22T09:18:12;5.30;;;3.30;;
55417;SDS011;41287;47.554;7.844;2022-07-22T09:20:39;6.50;;;3.53;;
55417;SDS011;41287;47.554;7.844;2022-07-22T09:23:11;4.50;;;3.40;;
55417;SDS011;41287;47.554;7.844;2022-07-22T09:25:39;5.05;;;3.42;;
55417;SDS011;41287;47.554;7.844;2022-07-22T09:30:32;5.13;;;3.47;;
55417;SDS011;41287;47.554;7.844;2022-07-22T09:33:02;6.47;;;3.78;;
55417;SDS011;41287;47.554;7.844;2022-07-22T09:35:28;4.55;;;3.08;;
55417;SDS011;41287;47.554;7.844;2022-07-22T09:37:55;4.85;;;3.58;;
55417;SDS011;41287;47.554;7.844;2022-07-22T09:42:55;5.78;;;3.17;;
55417;SDS011;41287;47.554;7.844;2022-07-22T09:45:23;5.15;;;3.47;;
55417;SDS011;41287;47.554;7.844;2022-07-22T09:47:49;4.55;;;2.75;;
55417;SDS011;41287;47.554;7.844;2022-07-22T09:50:22;5.47;;;3.58;;
55417;SDS011;41287;47.554;7.844;2022-07-22T09:52:50;6.70;;;3.85;;
55417;SDS011;41287;47.554;7.844;2022-07-22T09:55:18;5.53;;;3.83;;
55417;SDS011;41287;47.554;7.844;2022-07-22T09:57:46;4.93;;;3.50;;
55417;SDS011;41287;47.554;7.844;2022-07-22T10:00:14;6.25;;;3.83;;
55417;SDS011;41287;47.554;7.844;2022-07-22T10:02:46;5.18;;;3.42;;
55417;SDS011;41287;47.554;7.844;2022-07-22T10:05:17;6.10;;;3.88;;
55417;SDS011;41287;47.554;7.844;2022-07-22T10:07:45;4.97;;;3.67;;
55417;SDS011;41287;47.554;7.844;2022-07-22T10:10:12;6.07;;;3.85;;
55417;SDS011;41287;47.554;7.844;2022-07-22T10:12:40;5.88;;;3.70;;
55417;SDS011;41287;47.554;7.844;2022-07-22T10:15:07;6.97;;;3.60;;
55417;SDS011;41287;47.554;7.844;2022-07-22T10:17:37;5.43;;;3.78;;
55417;SDS011;41287;47.554;7.844;2022-07-22T10:20:05;5.07;;;3.72;;
55417;SDS011;41287;47.554;7.844;2022-07-22T10:25:04;6.10;;;4.05;;
55417;SDS011;41287;47.554;7.844;2022-07-22T10:30:25;5.32;;;3.78;;
55417;SDS011;41287;47.554;7.844;2022-07-22T10:35:33;5.68;;;3.67;;
55417;SDS011;41287;47.554;7.844;2022-07-22T10:38:02;5.80;;;3.63;;
55417;SDS011;41287;47.554;7.844;2022-07-22T10:40:30;5.80;;;3.85;;
55417;SDS011;41287;47.554;7.844;2022-07-22T10:43:11;7.63;;;3.53;;
55417;SDS011;41287;47.554;7.844;2022-07-22T10:48:09;10.43;;;3.70;;
55417;SDS011;41287;47.554;7.844;2022-07-22T10:53:20;7.50;;;3.38;;
55417;SDS011;41287;47.554;7.844;2022-07-22T10:56:06;7.55;;;4.07;;
55417;SDS011;41287;47.554;7.844;2022-07-22T11:01:06;7.80;;;3.83;;
55417;SDS011;41287;47.554;7.844;2022-07-22T11:03:34;5.95;;;3.50;;
55417;SDS011;41287;47.554;7.844;2022-07-22T11:06:14;11.85;;;4.05;;
55417;SDS011;41287;47.554;7.844;2022-07-22T11:08:42;7.60;;;3.60;;
55417;SDS011;41287;47.554;7.844;2022-07-22T11:11:08;5.30;;;3.30;;
55417;SDS011;41287;47.554;7.844;2022-07-22T11:13:37;8.02;;;3.65;;
55417;SDS011;41287;47.554;7.844;2022-07-22T11:16:15;8.63;;;3.55;;
55417;SDS011;41287;47.554;7.844;2022-07-22T11:18:55;11.65;;;3.50;;
55417;SDS011;41287;47.554;7.844;2022-07-22T11:21:23;6.05;;;3.10;;
55417;SDS011;41287;47.554;7.844;2022-07-22T11:23:54;7.40;;;3.88;;
55417;SDS011;41287;47.554;7.844;2022-07-22T11:26:25;7.43;;;3.83;;
55417;SDS011;41287;47.554;7.844;2022-07-22T11:28:56;7.60;;;3.80;;
55417;SDS011;41287;47.554;7.844;2022-07-22T11:31:22;6.80;;;3.67;;
55417;SDS011;41287;47.554;7.844;2022-07-22T11:33:48;7.20;;;3.83;;
55417;SDS011;41287;47.554;7.844;2022-07-22T11:36:13;9.75;;;3.78;;
55417;SDS011;41287;47.554;7.844;2022-07-22T11:38:39;8.73;;;4.10;;
55417;SDS011;41287;47.554;7.844;2022-07-22T11:41:13;6.68;;;3.78;;
55417;SDS011;41287;47.554;7.844;2022-07-22T11:43:41;5.25;;;3.70;;
55417;SDS011;41287;47.554;7.844;2022-07-22T11:46:08;7.28;;;3.63;;
55417;SDS011;41287;47.554;7.844;2022-07-22T11:48:33;7.07;;;3.38;;
55417;SDS011;41287;47.554;7.844;2022-07-22T11:51:00;8.55;;;3.63;;
55417;SDS011;41287;47.554;7.844;2022-07-22T11:53:27;5.80;;;3.90;;
55417;SDS011;41287;47.554;7.844;2022-07-22T11:55:59;7.05;;;3.40;;
55417;SDS011;41287;47.554;7.844;2022-07-22T12:01:00;6.15;;;3.80;;
55417;SDS011;41287;47.554;7.844;2022-07-22T12:03:26;9.10;;;3.80;;
55417;SDS011;41287;47.554;7.844;2022-07-22T12:05:52;7.32;;;4.00;;
55417;SDS011;41287;47.554;7.844;2022-07-22T12:08:18;9.13;;;4.15;;
55417;SDS011;41287;47.554;7.844;2022-07-22T12:10:45;6.07;;;4.05;;
55417;SDS011;41287;47.554;7.844;2022-07-22T12:13:11;7.72;;;3.55;;
55417;SDS011;41287;47.554;7.844;2022-07-22T12:15:38;8.05;;;3.72;;
55417;SDS011;41287;47.554;7.844;2022-07-22T12:18:22;6.32;;;3.58;;
55417;SDS011;41287;47.554;7.844;2022-07-22T12:20:50;6.47;;;3.65;;
55417;SDS011;41287;47.554;7.844;2022-07-22T12:23:17;9.95;;;3.65;;
55417;SDS011;41287;47.554;7.844;2022-07-22T12:25:56;7.30;;;3.92;;
55417;SDS011;41287;47.554;7.844;2022-07-22T12:28:24;4.22;;;3.30;;
55417;SDS011;41287;47.554;7.844;2022-07-22T12:30:50;7.93;;;3.85;;
55417;SDS011;41287;47.554;7.844;2022-07-22T12:33:18;8.77;;;3.50;;
55417;SDS011;41287;47.554;7.844;2022-07-22T12:35:57;6.78;;;4.00;;
55417;SDS011;41287;47.554;7.844;2022-07-22T12:38:24;6.95;;;3.72;;
55417;SDS011;41287;47.554;7.844;2022-07-22T12:40:50;7.78;;;3.72;;
55417;SDS011;41287;47.554;7.844;2022-07-22T12:43:15;7.80;;;3.60;;
55417;SDS011;41287;47.554;7.844;2022-07-22T12:45:41;7.60;;;4.03;;
55417;SDS011;41287;47.554;7.844;2022-07-22T12:48:08;10.35;;;3.88;;
55417;SDS011;41287;47.554;7.844;2022-07-22T12:50:54;6.90;;;3.65;;
55417;SDS011;41287;47.554;7.844;2022-07-22T12:53:24;5.55;;;3.53;;
55417;SDS011;41287;47.554;7.844;2022-07-22T12:55:55;6.20;;;3.50;;
55417;SDS011;41287;47.554;7.844;2022-07-22T12:58:29;5.80;;;3.30;;
55417;SDS011;41287;47.554;7.844;2022-07-22T13:00:58;7.97;;;3.75;;
55417;SDS011;41287;47.554;7.844;2022-07-22T13:03:26;6.55;;;3.55;;
55417;SDS011;41287;47.554;7.844;2022-07-22T13:05:55;6.78;;;3.60;;
55417;SDS011;41287;47.554;7.844;2022-07-22T13:08:23;6.57;;;3.75;;
55417;SDS011;41287;47.554;7.844;2022-07-22T13:10:52;7.35;;;3.80;;
55417;SDS011;41287;47.554;7.844;2022-07-22T13:13:21;4.93;;;3.55;;
55417;SDS011;41287;47.554;7.844;2022-07-22T13:15:47;6.35;;;3.78;;
55417;SDS011;41287;47.554;7.844;2022-07-22T13:18:14;8.48;;;3.72;;
55417;SDS011;41287;47.554;7.844;2022-07-22T13:20:40;7.18;;;3.78;;
55417;SDS011;41287;47.554;7.844;2022-07-22T13:23:07;6.65;;;3.92;;
55417;SDS011;41287;47.554;7.844;2022-07-22T13:25:33;8.48;;;3.78;;
55417;SDS011;41287;47.554;7.844;2022-07-22T13:27:59;5.70;;;3.40;;
55417;SDS011;41287;47.554;7.844;2022-07-22T13:30:25;8.35;;;3.72;;
55417;SDS011;41287;47.554;7.844;2022-07-22T13:32:50;6.97;;;3.53;;
55417;SDS011;41287;47.554;7.844;2022-07-22T13:35:18;8.10;;;3.80;;
55417;SDS011;41287;47.554;7.844;2022-07-22T13:37:44;6.45;;;3.65;;
55417;SDS011;41287;47.554;7.844;2022-07-22T13:40:10;6.78;;;4.03;;
55417;SDS011;41287;47.554;7.844;2022-07-22T13:42:36;7.95;;;3.78;;
55417;SDS011;41287;47.554;7.844;2022-07-22T13:45:02;9.10;;;3.72;;
55417;SDS011;41287;47.554;7.844;2022-07-22T13:47:29;7.85;;;3.67;;
55417;SDS011;41287;47.554;7.844;2022-07-22T13:49:55;7.38;;;3.97;;
55417;SDS011;41287;47.554;7.844;2022-07-22T13:52:21;6.57;;;3.90;;
55417;SDS011;41287;47.554;7.844;2022-07-22T13:54:46;6.25;;;3.85;;
55417;SDS011;41287;47.554;7.844;2022-07-22T13:57:12;8.70;;;4.18;;
55417;SDS011;41287;47.554;7.844;2022-07-22T13:59:37;7.35;;;4.22;;
55417;SDS011;41287;47.554;7.844;2022-07-22T14:02:03;5.72;;;4.15;;
55417;SDS011;41287;47.554;7.844;2022-07-22T14:04:29;7.38;;;3.97;;
55417;SDS011;41287;47.554;7.844;2022-07-22T14:06:55;6.93;;;4.43;;
55417;SDS011;41287;47.554;7.844;2022-07-22T14:09:20;6.30;;;3.53;;
55417;SDS011;41287;47.554;7.844;2022-07-22T14:11:46;8.18;;;3.92;;
55417;SDS011;41287;47.554;7.844;2022-07-22T14:14:11;7.85;;;4.30;;
55417;SDS011;41287;47.554;7.844;2022-07-22T14:16:37;9.35;;;4.40;;
55417;SDS011;41287;47.554;7.844;2022-07-22T14:19:07;6.88;;;3.67;;
55417;SDS011;41287;47.554;7.844;2022-07-22T14:21:39;5.38;;;3.88;;
55417;SDS011;41287;47.554;7.844;2022-07-22T14:24:06;5.55;;;4.10;;
55417;SDS011;41287;47.554;7.844;2022-07-22T14:26:33;6.82;;;4.15;;
55417;SDS011;41287;47.554;7.844;2022-07-22T14:28:59;6.95;;;3.88;;
55417;SDS011;41287;47.554;7.844;2022-07-22T14:31:25;8.38;;;4.20;;
55417;SDS011;41287;47.554;7.844;2022-07-22T14:33:51;8.98;;;4.18;;
55417;SDS011;41287;47.554;7.844;2022-07-22T14:36:17;7.43;;;4.20;;
55417;SDS011;41287;47.554;7.844;2022-07-22T14:38:43;5.95;;;3.97;;
55417;SDS011;41287;47.554;7.844;2022-07-22T14:41:08;5.38;;;3.75;;
55417;SDS011;41287;47.554;7.844;2022-07-22T14:43:37;7.03;;;3.70;;
55417;SDS011;41287;47.554;7.844;2022-07-22T14:46:03;7.30;;;4.20;;
55417;SDS011;41287;47.554;7.844;2022-07-22T14:48:32;7.72;;;3.90;;
55417;SDS011;41287;47.554;7.844;2022-07-22T14:50:57;7.15;;;4.30;;
55417;SDS011;41287;47.554;7.844;2022-07-22T14:53:22;6.55;;;3.80;;
55417;SDS011;41287;47.554;7.844;2022-07-22T14:55:52;5.38;;;3.58;;
55417;SDS011;41287;47.554;7.844;2022-07-22T14:58:17;8.73;;;4.15;;
55417;SDS011;41287;47.554;7.844;2022-07-22T15:00:43;7.57;;;4.20;;
55417;SDS011;41287;47.554;7.844;2022-07-22T15:03:09;7.68;;;4.18;;
55417;SDS011;41287;47.554;7.844;2022-07-22T15:05:34;7.72;;;4.78;;
55417;SDS011;41287;47.554;7.844;2022-07-22T15:07:59;6.93;;;4.40;;
55417;SDS011;41287;47.554;7.844;2022-07-22T15:10:25;7.43;;;3.80;;